createdAt,value
2022-10-05T00:00:55.408Z,91.90
2022-10-05T00:03:22.965Z,91.80
2022-10-05T00:05:50.056Z,91.60
2022-10-05T00:08:18.951Z,91.70
2022-10-05T00:10:46.682Z,91.70
2022-10-05T00:13:16.652Z,91.80
2022-10-05T00:15:44.064Z,91.80
2022-10-05T00:18:17.694Z,91.90
2022-10-05T00:20:46.303Z,92.00
2022-10-05T00:23:32.498Z,92.10
2022-10-05T00:26:12.590Z,92.20
2022-10-05T00:28:41.224Z,92.20
2022-10-05T00:31:20.188Z,92.30
2022-10-05T00:33:47.691Z,92.20
2022-10-05T00:36:15.309Z,92.20
2022-10-05T00:38:43.395Z,92.20
2022-10-05T00:41:30.631Z,92.20
2022-10-05T00:44:14.977Z,92.20
2022-10-05T00:46:48.719Z,92.20
2022-10-05T00:49:30.173Z,92.20
2022-10-05T00:52:08.474Z,92.20
2022-10-05T00:54:55.337Z,92.20
2022-10-05T00:57:51.372Z,92.20
2022-10-05T01:00:23.861Z,92.30
2022-10-05T01:03:30.585Z,92.40
2022-10-05T01:06:22.646Z,92.60
2022-10-05T01:08:49.603Z,92.60
2022-10-05T01:11:26.777Z,92.60
2022-10-05T01:13:53.689Z,92.60
2022-10-05T01:16:26.580Z,92.50
2022-10-05T01:19:18.269Z,92.40
2022-10-05T01:22:08.015Z,92.40
2022-10-05T01:24:37.151Z,92.50
2022-10-05T01:27:28.719Z,92.50
2022-10-05T01:30:16.348Z,92.60
2022-10-05T01:32:58.441Z,92.70
2022-10-05T01:35:39.736Z,92.90
2022-10-05T01:38:42.538Z,93.00
2022-10-05T01:41:22.941Z,93.00
2022-10-05T01:44:07.827Z,93.00
2022-10-05T01:47:08.418Z,93.00
2022-10-05T01:49:48.759Z,93.00
2022-10-05T01:52:44.946Z,93.00
2022-10-05T01:55:21.338Z,92.90
2022-10-05T01:58:07.616Z,92.90
2022-10-05T02:01:15.432Z,92.90
2022-10-05T02:04:03.131Z,92.80
2022-10-05T02:06:41.585Z,92.70
2022-10-05T02:09:18.417Z,92.60
2022-10-05T02:11:52.745Z,92.60
2022-10-05T02:14:32.941Z,92.70
2022-10-05T02:17:05.611Z,92.80
2022-10-05T02:19:41.845Z,92.80
2022-10-05T02:22:23.911Z,92.80
2022-10-05T02:25:00.828Z,92.80
2022-10-05T02:27:34.478Z,93.10
2022-10-05T02:30:05.273Z,92.80
2022-10-05T02:32:45.344Z,92.70
2022-10-05T02:35:15.759Z,92.70
2022-10-05T02:37:57.430Z,92.60
2022-10-05T02:40:52.665Z,92.60
2022-10-05T02:43:50.681Z,92.70
2022-10-05T02:46:31.301Z,92.60
2022-10-05T02:49:09.084Z,92.50
2022-10-05T02:51:55.654Z,92.30
2022-10-05T02:54:35.017Z,92.40
2022-10-05T02:57:28.947Z,92.40
2022-10-05T03:00:15.044Z,92.50
2022-10-05T03:03:10.493Z,92.50
2022-10-05T03:06:08.910Z,92.60
2022-10-05T03:08:54.726Z,92.50
2022-10-05T03:11:31.201Z,92.60
2022-10-05T03:13:59.624Z,92.60
2022-10-05T03:16:36.642Z,92.60
2022-10-05T03:19:15.822Z,92.70
2022-10-05T03:22:08.074Z,92.80
2022-10-05T03:24:57.213Z,92.90
2022-10-05T03:27:33.536Z,92.90
2022-10-05T03:30:22.789Z,92.70
2022-10-05T03:32:55.319Z,92.60
2022-10-05T03:35:46.996Z,92.60
2022-10-05T03:38:18.521Z,92.50
2022-10-05T03:41:10.191Z,92.50
2022-10-05T03:43:45.662Z,92.50
2022-10-05T03:46:37.700Z,92.50
2022-10-05T03:49:18.377Z,92.50
2022-10-05T03:52:17.501Z,92.50
2022-10-05T03:55:01.539Z,92.30
2022-10-05T03:57:35.049Z,92.20
2022-10-05T04:00:16.026Z,92.10
2022-10-05T04:02:58.072Z,92.20
2022-10-05T04:05:50.600Z,92.20
2022-10-05T04:08:23.785Z,92.30
2022-10-05T04:10:54.090Z,92.50
2022-10-05T04:13:49.229Z,92.60
2022-10-05T04:16:29.974Z,92.70
2022-10-05T04:19:25.517Z,92.80
2022-10-05T04:21:56.526Z,93.10
2022-10-05T04:24:35.215Z,93.20
2022-10-05T04:27:32.280Z,93.30
2022-10-05T04:30:19.444Z,93.40
2022-10-05T04:32:57.653Z,93.50
2022-10-05T04:35:31.585Z,93.50
2022-10-05T04:38:37.347Z,93.40
2022-10-05T04:41:33.496Z,93.50
2022-10-05T04:44:26.164Z,93.50
2022-10-05T04:47:01.765Z,93.60
2022-10-05T04:49:42.264Z,93.70
2022-10-05T04:52:43.551Z,93.70
2022-10-05T04:55:35.212Z,93.80
2022-10-05T04:58:29.704Z,93.80
2022-10-05T05:01:42.018Z,93.90
2022-10-05T05:04:33.370Z,94.00
2022-10-05T05:07:16.002Z,94.00
2022-10-05T05:10:02.412Z,94.10
2022-10-05T05:12:48.007Z,94.20
2022-10-05T05:15:41.146Z,94.20
2022-10-05T05:18:20.222Z,94.20
2022-10-05T05:21:08.491Z,94.20
2022-10-05T05:23:59.006Z,94.20
2022-10-05T05:27:07.349Z,94.20
2022-10-05T05:29:46.377Z,94.20
2022-10-05T05:32:25.487Z,94.20
2022-10-05T05:35:01.739Z,94.20
2022-10-05T05:38:10.987Z,94.20
2022-10-05T05:40:57.689Z,94.20
2022-10-05T05:43:31.032Z,94.20
2022-10-05T05:46:16.845Z,94.20
2022-10-05T05:48:46.562Z,94.20
2022-10-05T05:51:33.124Z,94.20
2022-10-05T05:54:18.136Z,94.30
2022-10-05T05:56:53.473Z,94.30
2022-10-05T05:59:30.891Z,94.30
2022-10-05T06:02:09.499Z,94.20
2022-10-05T06:04:41.445Z,94.10
2022-10-05T06:07:16.428Z,94.10
2022-10-05T06:09:53.994Z,94.00
2022-10-05T06:12:32.621Z,94.10
2022-10-05T06:15:31.362Z,94.20
2022-10-05T06:18:04.795Z,94.40
2022-10-05T06:21:04.226Z,94.50
2022-10-05T06:23:50.825Z,94.60
2022-10-05T06:26:37.867Z,94.60
2022-10-05T06:29:09.205Z,94.60
2022-10-05T06:32:20.784Z,94.60
2022-10-05T06:34:53.924Z,94.60
2022-10-05T06:37:34.544Z,94.50
2022-10-05T06:40:13.599Z,94.60
2022-10-05T06:42:57.424Z,94.60
2022-10-05T06:46:12.935Z,94.50
2022-10-05T06:49:23.417Z,94.50
2022-10-05T06:52:55.549Z,94.40
2022-10-05T06:55:47.734Z,94.40
2022-10-05T06:58:35.918Z,94.30
2022-10-05T07:01:16.667Z,94.30
2022-10-05T07:04:08.977Z,94.30
2022-10-05T07:06:49.800Z,94.20
2022-10-05T07:09:33.721Z,94.20
2022-10-05T07:12:17.617Z,94.20
2022-10-05T07:15:09.209Z,94.10
2022-10-05T07:18:13.865Z,94.10
2022-10-05T07:21:15.185Z,93.90
2022-10-05T07:24:04.742Z,93.70
2022-10-05T07:26:39.760Z,93.40
2022-10-05T07:29:12.825Z,93.40
2022-10-05T07:31:52.295Z,93.30
2022-10-05T07:34:37.544Z,92.90
2022-10-05T07:37:28.971Z,92.70
2022-10-05T07:40:11.559Z,92.70
2022-10-05T07:43:07.597Z,92.80
2022-10-05T07:45:52.715Z,92.70
2022-10-05T07:48:23.446Z,92.30
2022-10-05T07:51:01.459Z,92.00
2022-10-05T07:53:42.992Z,91.60
2022-10-05T07:56:22.002Z,91.40
2022-10-05T07:59:01.753Z,91.20
2022-10-05T08:01:42.252Z,91.00
2022-10-05T08:04:21.299Z,90.90
2022-10-05T08:06:59.686Z,90.70
2022-10-05T08:09:59.494Z,90.50
2022-10-05T08:12:44.676Z,90.70
2022-10-05T08:15:23.022Z,90.50
2022-10-05T08:17:55.113Z,90.30
2022-10-05T08:20:46.071Z,89.60
2022-10-05T08:23:16.101Z,89.00
2022-10-05T08:25:57.872Z,88.80
2022-10-05T08:28:37.691Z,88.30
2022-10-05T08:31:04.719Z,87.90
2022-10-05T08:33:43.603Z,87.50
2022-10-05T08:36:14.534Z,87.50
2022-10-05T08:38:42.689Z,87.80
2022-10-05T08:41:47.405Z,87.40
2022-10-05T08:44:33.356Z,86.80
2022-10-05T08:47:12.357Z,86.80
2022-10-05T08:50:03.144Z,86.40
2022-10-05T08:52:54.064Z,86.10
2022-10-05T08:55:42.327Z,85.50
2022-10-05T08:58:21.260Z,85.10
2022-10-05T09:00:59.647Z,84.20
2022-10-05T09:03:59.858Z,83.50
2022-10-05T09:06:48.017Z,82.80
2022-10-05T09:09:18.019Z,81.80
2022-10-05T09:12:06.865Z,81.10
2022-10-05T09:15:01.555Z,79.60
2022-10-05T09:18:01.859Z,79.30
2022-10-05T09:20:49.709Z,79.20
2022-10-05T09:23:39.619Z,79.80
2022-10-05T09:26:29.690Z,79.80
2022-10-05T09:29:02.662Z,78.70
2022-10-05T09:31:51.287Z,78.50
2022-10-05T09:34:31.838Z,77.30
2022-10-05T09:37:13.960Z,77.00
2022-10-05T09:40:13.102Z,76.80
2022-10-05T09:42:49.159Z,76.80
2022-10-05T09:45:53.339Z,76.70
2022-10-05T09:48:38.207Z,76.90
2022-10-05T09:51:10.316Z,75.20
2022-10-05T09:53:53.021Z,74.70
2022-10-05T09:57:00.107Z,74.70
2022-10-05T09:59:39.362Z,74.40
2022-10-05T10:02:44.005Z,73.90
2022-10-05T10:05:10.999Z,73.60
2022-10-05T10:08:21.348Z,73.30
2022-10-05T10:11:16.459Z,72.80
2022-10-05T10:13:46.684Z,72.40
2022-10-05T10:16:41.814Z,72.10
2022-10-05T10:20:01.410Z,71.40
2022-10-05T10:22:50.186Z,71.90
2022-10-05T10:25:38.579Z,71.50
2022-10-05T10:28:17.988Z,70.80
2022-10-05T10:31:17.019Z,69.80
2022-10-05T10:34:19.909Z,69.40
2022-10-05T10:37:23.612Z,68.80
2022-10-05T10:40:35.431Z,68.90
2022-10-05T10:43:22.324Z,69.40
2022-10-05T10:46:10.305Z,69.20
2022-10-05T10:48:52.146Z,69.30
2022-10-05T10:51:46.268Z,68.80
2022-10-05T10:54:22.182Z,68.20
2022-10-05T10:57:04.411Z,68.20
2022-10-05T11:00:02.335Z,68.00
2022-10-05T11:02:38.188Z,66.60
2022-10-05T11:05:08.011Z,66.60
2022-10-05T11:07:53.132Z,65.40
2022-10-05T11:10:53.829Z,65.20
2022-10-05T11:14:03.186Z,65.30
2022-10-05T11:16:51.452Z,64.80
2022-10-05T11:19:40.550Z,65.00
2022-10-05T11:22:22.548Z,64.90
2022-10-05T11:25:16.772Z,64.30
2022-10-05T11:28:14.320Z,63.70
2022-10-05T11:31:03.083Z,62.60
2022-10-05T11:33:48.902Z,62.60
2022-10-05T11:36:46.578Z,62.90
2022-10-05T11:39:33.414Z,61.80
2022-10-05T11:42:18.566Z,61.80
2022-10-05T11:45:26.621Z,62.10
2022-10-05T11:48:20.326Z,61.70
2022-10-05T11:50:59.986Z,60.60
2022-10-05T11:53:33.012Z,60.80
2022-10-05T11:56:36.114Z,61.00
2022-10-05T11:59:26.707Z,61.20
2022-10-05T12:02:05.938Z,61.40
2022-10-05T12:04:59.713Z,60.30
2022-10-05T12:07:55.464Z,58.50
2022-10-05T12:10:44.936Z,59.10
2022-10-05T12:13:30.219Z,59.00
2022-10-05T12:16:18.535Z,58.90
2022-10-05T12:18:51.282Z,56.70
2022-10-05T12:21:27.793Z,58.00
2022-10-05T12:24:03.678Z,57.90
2022-10-05T12:26:44.766Z,57.60
2022-10-05T12:29:26.801Z,56.90
2022-10-05T12:32:00.600Z,56.20
2022-10-05T12:34:33.349Z,55.70
2022-10-05T12:37:28.687Z,56.00
2022-10-05T12:40:11.097Z,56.20
2022-10-05T12:42:52.905Z,57.20
2022-10-05T12:46:02.118Z,57.00
2022-10-05T12:48:44.092Z,57.10
2022-10-05T12:51:31.933Z,57.40
2022-10-05T12:54:22.170Z,58.30
2022-10-05T12:57:01.670Z,58.20
2022-10-05T12:59:48.852Z,57.60
2022-10-05T13:02:39.198Z,57.20
2022-10-05T13:05:09.352Z,56.20
2022-10-05T13:08:00.519Z,56.20
2022-10-05T13:10:39.207Z,55.30
2022-10-05T13:13:06.190Z,54.90
2022-10-05T13:15:56.716Z,55.90
2022-10-05T13:18:30.469Z,56.70
2022-10-05T13:21:09.441Z,56.80
2022-10-05T13:23:58.321Z,57.00
2022-10-05T13:26:34.099Z,58.10
2022-10-05T13:29:01.035Z,58.00
2022-10-05T13:31:31.341Z,58.50
2022-10-05T13:34:17.867Z,59.20
2022-10-05T13:36:59.414Z,58.90
2022-10-05T13:39:44.206Z,59.20
2022-10-05T13:43:11.627Z,59.10
2022-10-05T13:45:44.450Z,58.50
2022-10-05T13:48:30.101Z,58.80
2022-10-05T13:51:45.849Z,58.80
2022-10-05T13:54:24.865Z,58.90
2022-10-05T13:57:17.858Z,58.80
2022-10-05T14:00:02.558Z,58.10
2022-10-05T14:02:41.846Z,58.30
2022-10-05T14:05:23.195Z,58.60
2022-10-05T14:07:53.104Z,58.60
2022-10-05T14:10:49.457Z,58.10
2022-10-05T14:13:26.723Z,57.80
2022-10-05T14:16:04.675Z,57.40
2022-10-05T14:18:34.235Z,58.70
2022-10-05T14:21:13.650Z,58.30
2022-10-05T14:23:40.980Z,58.30
2022-10-05T14:26:24.696Z,59.10
2022-10-05T14:29:18.075Z,59.20
2022-10-05T14:32:06.035Z,59.30
2022-10-05T14:34:42.169Z,58.50
2022-10-05T14:37:21.017Z,58.60
2022-10-05T14:39:49.891Z,58.60
2022-10-05T14:42:20.784Z,59.00
2022-10-05T14:45:21.310Z,58.90
2022-10-05T14:47:54.119Z,59.70
2022-10-05T14:50:26.319Z,59.50
2022-10-05T14:53:21.211Z,60.00
2022-10-05T14:55:48.157Z,59.20
2022-10-05T14:58:15.060Z,59.70
2022-10-05T15:00:56.974Z,59.60
2022-10-05T15:03:40.499Z,59.10
2022-10-05T15:06:25.139Z,58.80
2022-10-05T15:09:12.438Z,59.10
2022-10-05T15:11:54.507Z,59.10
2022-10-05T15:14:38.356Z,59.40
2022-10-05T15:17:17.933Z,59.70
2022-10-05T15:20:07.403Z,59.00
2022-10-05T15:22:52.601Z,59.40
2022-10-05T15:25:40.443Z,60.00
2022-10-05T15:28:13.736Z,59.90
2022-10-05T15:30:51.029Z,59.90
2022-10-05T15:33:53.786Z,60.00
2022-10-05T15:36:35.640Z,60.30
2022-10-05T15:39:28.554Z,60.70
2022-10-05T15:42:11.265Z,61.20
2022-10-05T15:45:05.458Z,61.30
2022-10-05T15:47:59.986Z,61.50
2022-10-05T15:50:37.394Z,61.50
2022-10-05T15:53:25.698Z,61.50
2022-10-05T15:56:20.906Z,61.90
2022-10-05T15:59:07.373Z,61.90
2022-10-05T16:01:34.331Z,61.70
2022-10-05T16:04:23.462Z,61.60
2022-10-05T16:07:16.742Z,62.00
2022-10-05T16:10:16.091Z,62.20
2022-10-05T16:13:04.981Z,62.30
2022-10-05T16:15:39.263Z,62.30
2022-10-05T16:18:43.503Z,62.30
2022-10-05T16:21:25.525Z,62.60
2022-10-05T16:24:23.579Z,63.10
2022-10-05T16:27:30.884Z,63.20
2022-10-05T16:30:10.152Z,63.40
2022-10-05T16:33:20.462Z,63.50
2022-10-05T16:35:50.020Z,63.80
2022-10-05T16:38:25.868Z,64.20
2022-10-05T16:41:09.599Z,64.50
2022-10-05T16:43:54.022Z,64.90
2022-10-05T16:46:28.072Z,65.00
2022-10-05T16:49:15.492Z,65.20
2022-10-05T16:52:14.006Z,65.30
2022-10-05T16:55:14.088Z,65.80
2022-10-05T16:57:51.582Z,66.20
2022-10-05T17:00:37.500Z,66.60
2022-10-05T17:03:42.067Z,67.20
2022-10-05T17:06:17.561Z,67.70
2022-10-05T17:09:05.380Z,68.10
2022-10-05T17:11:44.986Z,68.50
2022-10-05T17:14:32.846Z,68.70
2022-10-05T17:17:15.896Z,69.70
2022-10-05T17:19:55.176Z,69.30
2022-10-05T17:22:26.998Z,69.50
2022-10-05T17:24:56.885Z,69.70
2022-10-05T17:27:35.280Z,69.90
2022-10-05T17:30:22.897Z,70.20
2022-10-05T17:33:20.020Z,70.50
2022-10-05T17:36:12.284Z,70.70
2022-10-05T17:38:48.844Z,71.00
2022-10-05T17:41:21.539Z,71.10
2022-10-05T17:44:13.562Z,71.10
2022-10-05T17:46:48.503Z,71.30
2022-10-05T17:49:18.231Z,71.40
2022-10-05T17:52:14.267Z,71.80
2022-10-05T17:55:05.675Z,72.10
2022-10-05T17:57:34.035Z,72.50
2022-10-05T18:00:04.106Z,72.60
2022-10-05T18:02:36.947Z,72.70
2022-10-05T18:05:04.550Z,72.90
2022-10-05T18:07:33.937Z,72.90
2022-10-05T18:10:09.756Z,73.00
2022-10-05T18:12:36.738Z,73.10
2022-10-05T18:15:09.577Z,73.20
2022-10-05T18:17:45.205Z,73.30
2022-10-05T18:20:13.838Z,73.40
2022-10-05T18:22:44.036Z,73.50
2022-10-05T18:25:22.673Z,73.50
2022-10-05T18:27:55.952Z,73.70
2022-10-05T18:30:25.240Z,73.80
2022-10-05T18:33:07.645Z,74.00
2022-10-05T18:35:45.998Z,74.20
2022-10-05T18:38:48.396Z,74.30
2022-10-05T18:41:39.318Z,74.50
2022-10-05T18:44:26.362Z,74.70
2022-10-05T18:47:08.590Z,74.80
2022-10-05T18:49:51.814Z,75.00
2022-10-05T18:52:21.742Z,75.10
2022-10-05T18:55:20.842Z,75.20
2022-10-05T18:58:02.760Z,75.40
2022-10-05T19:00:55.722Z,75.60
2022-10-05T19:03:32.377Z,75.80
2022-10-05T19:06:13.072Z,75.90
2022-10-05T19:09:08.148Z,76.10
2022-10-05T19:12:22.261Z,76.30
2022-10-05T19:15:13.698Z,76.60
2022-10-05T19:18:01.557Z,76.90
2022-10-05T19:20:37.372Z,77.20
2022-10-05T19:23:22.243Z,77.30
2022-10-05T19:25:53.051Z,77.70
2022-10-05T19:28:44.149Z,77.70
2022-10-05T19:31:45.424Z,77.90
2022-10-05T19:34:32.802Z,78.10
2022-10-05T19:37:14.919Z,78.10
2022-10-05T19:39:44.949Z,78.40
2022-10-05T19:42:37.157Z,78.50
2022-10-05T19:45:21.127Z,78.90
2022-10-05T19:48:20.134Z,79.00
2022-10-05T19:50:59.286Z,79.30
2022-10-05T19:53:37.027Z,79.40
2022-10-05T19:56:20.444Z,79.50
2022-10-05T19:58:49.807Z,79.70
2022-10-05T20:01:47.754Z,79.70
2022-10-05T20:04:37.050Z,79.90
2022-10-05T20:07:04.884Z,79.90
2022-10-05T20:09:58.165Z,80.00
2022-10-05T20:12:47.679Z,80.30
2022-10-05T20:15:40.899Z,80.50
2022-10-05T20:18:57.697Z,80.70
2022-10-05T20:21:44.780Z,81.00
2022-10-05T20:24:14.514Z,81.20
2022-10-05T20:27:09.506Z,81.20
2022-10-05T20:29:39.796Z,81.30
2022-10-05T20:32:13.009Z,81.40
2022-10-05T20:34:42.199Z,81.50
2022-10-05T20:37:11.550Z,81.50
2022-10-05T20:39:39.506Z,81.70
2022-10-05T20:42:07.798Z,81.80
2022-10-05T20:44:35.592Z,82.00
2022-10-05T20:47:03.098Z,82.20
2022-10-05T20:49:31.777Z,82.40
2022-10-05T20:51:59.242Z,82.50
2022-10-05T20:54:27.502Z,82.60
2022-10-05T20:56:55.685Z,82.70
2022-10-05T20:59:24.416Z,82.80
2022-10-05T21:01:51.983Z,83.60
2022-10-05T21:04:21.420Z,83.00
2022-10-05T21:06:48.602Z,83.00
2022-10-05T21:09:21.319Z,83.00
2022-10-05T21:11:50.229Z,83.10
2022-10-05T21:14:17.266Z,83.20
2022-10-05T21:16:45.881Z,83.20
2022-10-05T21:19:14.364Z,84.00
2022-10-05T21:21:44.339Z,83.40
2022-10-05T21:24:13.727Z,83.60
2022-10-05T21:26:41.759Z,83.60
2022-10-05T21:29:12.566Z,83.60
2022-10-05T21:31:40.716Z,83.60
2022-10-05T21:34:08.244Z,83.60
2022-10-05T21:36:35.597Z,83.80
2022-10-05T21:39:02.649Z,83.90
2022-10-05T21:41:29.671Z,84.00
2022-10-05T21:43:56.691Z,84.20
2022-10-05T21:46:28.184Z,84.40
2022-10-05T21:48:55.906Z,84.70
2022-10-05T21:51:25.283Z,84.80
2022-10-05T21:54:01.992Z,85.00
2022-10-05T21:56:33.261Z,85.70
2022-10-05T21:59:02.977Z,85.20
2022-10-05T22:01:30.051Z,85.40
2022-10-05T22:03:57.019Z,85.40
2022-10-05T22:06:24.062Z,85.40
2022-10-05T22:08:51.112Z,85.40
2022-10-05T22:11:18.760Z,85.30
2022-10-05T22:13:50.921Z,85.40
2022-10-05T22:16:21.281Z,85.50
2022-10-05T22:18:49.351Z,85.40
2022-10-05T22:21:17.069Z,85.50
2022-10-05T22:23:45.857Z,85.70
2022-10-05T22:26:16.238Z,85.90
2022-10-05T22:28:44.437Z,86.10
2022-10-05T22:31:12.845Z,87.00
2022-10-05T22:33:41.341Z,86.60
2022-10-05T22:36:09.940Z,86.70
2022-10-05T22:38:36.946Z,86.60
2022-10-05T22:41:03.982Z,86.30
2022-10-05T22:43:31.007Z,86.30
2022-10-05T22:45:58.065Z,86.30
2022-10-05T22:48:25.408Z,86.40
2022-10-05T22:50:52.754Z,86.40
2022-10-05T22:53:19.712Z,86.50
2022-10-05T22:55:46.706Z,86.60
2022-10-05T22:58:13.651Z,86.60
2022-10-05T23:00:57.515Z,86.50
2022-10-05T23:03:25.777Z,86.60
2022-10-05T23:06:03.169Z,87.00
2022-10-05T23:08:34.110Z,87.50
2022-10-05T23:11:05.026Z,87.60
2022-10-05T23:13:33.380Z,87.80
2022-10-05T23:16:17.858Z,88.00
2022-10-05T23:18:46.974Z,88.30
2022-10-05T23:21:13.969Z,88.40
2022-10-05T23:23:43.671Z,88.70
2022-10-05T23:26:11.798Z,88.40
2022-10-05T23:28:40.619Z,88.10
2022-10-05T23:31:08.700Z,88.10
2022-10-05T23:33:36.046Z,88.30
2022-10-05T23:36:15.384Z,88.40
2022-10-05T23:38:42.334Z,88.60
2022-10-05T23:41:11.177Z,88.70
2022-10-05T23:43:38.339Z,88.80
2022-10-05T23:46:06.745Z,89.00
2022-10-05T23:48:34.179Z,89.20
2022-10-05T23:51:01.158Z,89.60
2022-10-05T23:53:28.149Z,89.80
2022-10-05T23:55:55.396Z,89.80
2022-10-05T23:58:22.957Z,89.50
